Airport ICAO


22:04 UTC

12°C

Fog


An affordable passengers' Moving Map for your aircraft. Made for the iPad and the iPhone
More information here

LFMC Le Cannet


Le Luc FRANCE    CAT II


METAR LFMC 132200Z AUTO 00000KT 0400 0350 FG ////// 12/12 Q1028 0h04min





NOTAMS

OPEN